createdAt,value
2018-11-28T00:00:57.970Z,0.00
2018-11-28T00:01:57.894Z,0.00
2018-11-28T00:02:57.805Z,0.00
2018-11-28T00:03:57.723Z,0.00
2018-11-28T00:04:57.642Z,0.00
2018-11-28T00:05:57.551Z,0.00
2018-11-28T00:06:57.476Z,0.00
2018-11-28T00:07:57.391Z,0.00
2018-11-28T00:08:57.310Z,0.00
2018-11-28T00:09:57.223Z,0.00
2018-11-28T00:10:57.138Z,0.00
2018-11-28T00:11:57.061Z,0.00
2018-11-28T00:12:56.974Z,0.00
2018-11-28T00:13:56.889Z,0.00
2018-11-28T00:14:56.806Z,0.00
2018-11-28T00:15:56.722Z,0.00
2018-11-28T00:16:56.647Z,0.00
2018-11-28T00:17:56.552Z,0.00
2018-11-28T00:18:56.474Z,0.00
2018-11-28T00:19:56.404Z,0.00
2018-11-28T00:20:56.295Z,0.00
2018-11-28T00:21:56.218Z,0.00
2018-11-28T00:22:56.128Z,0.00
2018-11-28T00:23:56.057Z,0.00
2018-11-28T00:24:55.961Z,0.00
2018-11-28T00:25:58.806Z,0.00
2018-11-28T00:26:55.793Z,0.00
2018-11-28T00:27:55.720Z,0.00
2018-11-28T00:28:55.636Z,0.00
2018-11-28T00:29:55.554Z,0.00
2018-11-28T00:30:55.462Z,0.00
2018-11-28T00:31:55.392Z,0.00
2018-11-28T00:32:55.294Z,0.00
2018-11-28T00:33:55.223Z,0.00
2018-11-28T00:34:55.129Z,0.00
2018-11-28T00:35:55.053Z,0.00
2018-11-28T00:36:54.973Z,0.00
2018-11-28T00:37:54.885Z,0.00
2018-11-28T00:38:54.796Z,0.00
2018-11-28T00:39:54.717Z,0.00
2018-11-28T00:40:54.628Z,0.00
2018-11-28T00:41:54.551Z,0.00
2018-11-28T00:42:54.464Z,0.00
2018-11-28T00:43:54.390Z,0.00
2018-11-28T00:44:54.296Z,0.00
2018-11-28T00:45:54.218Z,0.00
2018-11-28T00:46:54.128Z,0.00
2018-11-28T00:47:54.054Z,0.00
2018-11-28T00:48:53.962Z,0.00
2018-11-28T00:49:53.883Z,0.00
2018-11-28T00:50:53.797Z,0.00
2018-11-28T00:51:53.717Z,0.00
2018-11-28T00:52:53.635Z,0.00
2018-11-28T00:53:53.551Z,0.00
2018-11-28T00:54:53.461Z,0.00
2018-11-28T00:55:53.384Z,0.00
2018-11-28T00:56:53.290Z,0.00
2018-11-28T00:57:53.219Z,0.00
2018-11-28T00:58:53.130Z,0.00
2018-11-28T00:59:53.052Z,0.00
2018-11-28T01:00:52.962Z,0.00
2018-11-28T01:01:52.884Z,0.00
2018-11-28T01:02:52.793Z,0.00
2018-11-28T01:03:52.719Z,0.00
2018-11-28T01:04:52.627Z,0.00
2018-11-28T01:05:52.549Z,0.00
2018-11-28T01:06:52.460Z,0.00
2018-11-28T01:07:52.384Z,0.00
2018-11-28T01:08:52.291Z,0.00
2018-11-28T01:09:52.220Z,0.00
2018-11-28T01:10:52.127Z,0.00
2018-11-28T01:11:52.059Z,0.00
2018-11-28T01:12:51.956Z,0.00
2018-11-28T01:13:51.882Z,0.00
2018-11-28T01:14:51.794Z,0.00
2018-11-28T01:15:51.714Z,0.00
2018-11-28T01:16:51.626Z,0.00
2018-11-28T01:17:51.565Z,0.00
2018-11-28T01:18:51.460Z,0.00
2018-11-28T01:19:51.386Z,0.00
2018-11-28T01:20:51.294Z,0.00
2018-11-28T01:21:51.217Z,0.00
2018-11-28T01:22:51.127Z,0.00
2018-11-28T01:23:51.052Z,0.00
2018-11-28T01:24:50.967Z,0.00
2018-11-28T01:25:50.884Z,0.00
2018-11-28T01:26:50.800Z,0.00
2018-11-28T01:27:50.721Z,0.00
2018-11-28T01:28:50.629Z,0.00
2018-11-28T01:29:50.553Z,0.00
2018-11-28T01:30:50.461Z,0.00
2018-11-28T01:31:50.389Z,0.00
2018-11-28T01:32:50.299Z,0.00
2018-11-28T01:33:50.213Z,0.00
2018-11-28T01:34:50.132Z,0.00
2018-11-28T01:35:50.056Z,0.00
2018-11-28T01:36:49.964Z,0.00
2018-11-28T01:37:49.890Z,0.00
2018-11-28T01:38:49.799Z,0.00
2018-11-28T01:39:49.721Z,0.00
2018-11-28T01:40:49.636Z,0.00
2018-11-28T01:41:49.550Z,0.00
2018-11-28T01:42:49.463Z,0.00
2018-11-28T01:43:49.389Z,0.00
2018-11-28T01:44:49.301Z,0.00
2018-11-28T01:45:49.218Z,0.00
2018-11-28T01:46:49.137Z,0.00
2018-11-28T01:47:49.072Z,0.00
2018-11-28T01:48:48.967Z,0.00
2018-11-28T01:49:48.885Z,0.00
2018-11-28T01:50:48.792Z,0.00
2018-11-28T01:51:48.725Z,0.00
2018-11-28T01:52:48.642Z,0.00
2018-11-28T01:53:48.555Z,0.00
2018-11-28T01:54:48.464Z,0.00
2018-11-28T01:55:48.385Z,0.00
2018-11-28T01:56:48.309Z,0.00
2018-11-28T01:57:48.218Z,0.00
2018-11-28T01:58:48.125Z,0.00
2018-11-28T01:59:48.061Z,0.00
2018-11-28T02:00:47.981Z,0.00
2018-11-28T02:01:47.890Z,0.00
2018-11-28T02:02:47.797Z,0.00
2018-11-28T02:03:47.740Z,0.00
2018-11-28T02:04:47.634Z,0.00
2018-11-28T02:05:47.559Z,0.00
2018-11-28T02:06:47.462Z,0.00
2018-11-28T02:07:47.392Z,0.00
2018-11-28T02:08:47.299Z,0.00
2018-11-28T02:09:47.225Z,0.00
2018-11-28T02:10:47.133Z,0.00
2018-11-28T02:11:47.072Z,0.00
2018-11-28T02:12:46.969Z,0.00
2018-11-28T02:13:46.897Z,0.00
2018-11-28T02:14:46.796Z,0.00
2018-11-28T02:15:46.725Z,0.00
2018-11-28T02:16:46.640Z,0.00
2018-11-28T02:17:46.554Z,0.00
2018-11-28T02:18:46.469Z,0.00
2018-11-28T02:19:46.397Z,0.00
2018-11-28T02:20:46.313Z,0.00
2018-11-28T02:21:46.226Z,0.00
2018-11-28T02:22:46.136Z,0.00
2018-11-28T02:23:46.062Z,0.00
2018-11-28T02:24:45.978Z,0.00
2018-11-28T02:25:45.894Z,0.00
2018-11-28T02:26:45.801Z,0.00
2018-11-28T02:27:45.730Z,0.00
2018-11-28T02:28:45.633Z,0.00
2018-11-28T02:29:45.562Z,0.00
2018-11-28T02:30:45.473Z,0.00
2018-11-28T02:31:45.397Z,0.00
2018-11-28T02:32:45.305Z,0.00
2018-11-28T02:33:45.228Z,0.00
2018-11-28T02:34:45.137Z,0.00
2018-11-28T02:35:45.064Z,0.00
2018-11-28T02:36:44.966Z,0.00
2018-11-28T02:37:44.893Z,0.00
2018-11-28T02:38:44.803Z,0.00
2018-11-28T02:39:44.727Z,0.00
2018-11-28T02:40:44.641Z,0.00
2018-11-28T02:41:44.579Z,0.00
2018-11-28T02:42:44.492Z,0.00
2018-11-28T02:43:44.398Z,0.00
2018-11-28T02:44:44.305Z,0.00
2018-11-28T02:45:44.229Z,0.00
2018-11-28T02:46:44.136Z,0.00
2018-11-28T02:47:44.061Z,0.00
2018-11-28T02:48:43.969Z,0.00
2018-11-28T02:49:43.902Z,0.00
2018-11-28T02:50:43.808Z,0.00
2018-11-28T02:51:43.731Z,0.00
2018-11-28T02:52:43.638Z,0.00
2018-11-28T02:53:43.563Z,0.00
2018-11-28T02:54:43.474Z,0.00
2018-11-28T02:55:43.398Z,0.00
2018-11-28T02:56:43.305Z,0.00
2018-11-28T02:57:43.235Z,0.00
2018-11-28T02:58:43.145Z,0.00
2018-11-28T02:59:43.072Z,0.00
2018-11-28T03:00:42.972Z,0.00
2018-11-28T03:01:42.893Z,0.00
2018-11-28T03:02:42.807Z,0.00
2018-11-28T03:03:42.738Z,0.00
2018-11-28T03:04:42.638Z,0.00
2018-11-28T03:05:42.582Z,0.00
2018-11-28T03:06:42.479Z,0.00
2018-11-28T03:07:42.399Z,0.00
2018-11-28T03:08:42.306Z,0.00
2018-11-28T03:09:42.227Z,0.00
2018-11-28T03:10:42.141Z,0.00
2018-11-28T03:11:42.064Z,0.00
2018-11-28T03:12:41.977Z,0.00
2018-11-28T03:13:41.899Z,0.00
2018-11-28T03:14:41.811Z,0.00
2018-11-28T03:15:41.734Z,0.00
2018-11-28T03:16:41.648Z,0.00
2018-11-28T03:17:41.562Z,0.00
2018-11-28T03:18:41.481Z,0.00
2018-11-28T03:19:41.404Z,0.00
2018-11-28T03:20:41.313Z,0.00
2018-11-28T03:21:41.234Z,0.00
2018-11-28T03:22:41.144Z,0.00
2018-11-28T03:23:41.069Z,0.00
2018-11-28T03:24:40.980Z,0.00
2018-11-28T03:25:41.906Z,0.00
2018-11-28T03:26:40.813Z,0.00
2018-11-28T03:27:40.737Z,0.00
2018-11-28T03:28:40.652Z,0.00
2018-11-28T03:29:40.569Z,0.00
2018-11-28T03:30:40.474Z,0.00
2018-11-28T03:31:40.407Z,0.00
2018-11-28T03:32:40.319Z,0.00
2018-11-28T03:33:40.235Z,0.00
2018-11-28T03:34:45.378Z,0.00
2018-11-28T03:35:40.073Z,0.00
2018-11-28T03:36:39.981Z,0.00
2018-11-28T03:37:39.904Z,0.00
2018-11-28T03:38:39.814Z,0.00
2018-11-28T03:39:39.739Z,0.00
2018-11-28T03:40:39.647Z,0.00
2018-11-28T03:41:39.568Z,0.00
2018-11-28T03:42:39.486Z,0.00
2018-11-28T03:43:39.406Z,0.00
2018-11-28T03:44:39.315Z,0.00
2018-11-28T03:45:39.236Z,0.00
2018-11-28T03:46:39.148Z,0.00
2018-11-28T03:47:39.086Z,0.00
2018-11-28T03:48:38.982Z,0.00
2018-11-28T03:49:38.905Z,0.00
2018-11-28T03:50:38.813Z,0.00
2018-11-28T03:51:38.741Z,0.00
2018-11-28T03:52:38.665Z,0.00
2018-11-28T03:53:38.575Z,0.00
2018-11-28T03:54:38.479Z,0.00
2018-11-28T03:55:38.409Z,0.00
2018-11-28T03:56:38.319Z,0.00
2018-11-28T03:57:38.262Z,0.00
2018-11-28T03:58:38.157Z,0.00
2018-11-28T03:59:38.075Z,0.00
2018-11-28T04:00:37.982Z,0.00
2018-11-28T04:01:37.904Z,0.00
2018-11-28T04:02:37.818Z,0.00
2018-11-28T04:03:37.734Z,0.00
2018-11-28T04:04:37.650Z,0.00
2018-11-28T04:05:37.574Z,0.00
2018-11-28T04:06:37.486Z,0.00
2018-11-28T04:07:37.404Z,0.00
2018-11-28T04:08:37.317Z,0.00
2018-11-28T04:09:37.240Z,0.00
2018-11-28T04:10:37.149Z,0.00
2018-11-28T04:11:37.076Z,0.00
2018-11-28T04:12:36.983Z,0.00
2018-11-28T04:13:36.908Z,0.00
2018-11-28T04:14:36.817Z,0.00
2018-11-28T04:15:36.741Z,0.00
2018-11-28T04:16:36.652Z,0.00
2018-11-28T04:17:36.576Z,0.00
2018-11-28T04:18:36.482Z,0.00
2018-11-28T04:19:36.403Z,0.00
2018-11-28T04:20:36.315Z,0.00
2018-11-28T04:21:36.242Z,0.00
2018-11-28T04:22:36.165Z,0.00
2018-11-28T04:23:36.076Z,0.00
2018-11-28T04:24:35.994Z,0.00
2018-11-28T04:25:35.909Z,0.00
2018-11-28T04:26:35.815Z,0.00
2018-11-28T04:27:35.742Z,0.00
2018-11-28T04:28:35.650Z,0.00
2018-11-28T04:29:35.569Z,0.00
2018-11-28T04:30:35.489Z,0.00
2018-11-28T04:31:35.419Z,0.00
2018-11-28T04:32:35.316Z,0.00
2018-11-28T04:33:35.243Z,0.00
2018-11-28T04:34:35.176Z,0.00
2018-11-28T04:35:35.075Z,0.00
2018-11-28T04:36:34.982Z,0.00
2018-11-28T04:37:34.907Z,0.00
2018-11-28T04:38:34.816Z,0.00
2018-11-28T04:39:34.773Z,0.00
2018-11-28T04:40:34.649Z,0.00
2018-11-28T04:41:34.582Z,0.00
2018-11-28T04:42:34.482Z,0.00
2018-11-28T04:43:34.405Z,0.00
2018-11-28T04:44:34.317Z,0.00
2018-11-28T04:45:34.302Z,0.00
2018-11-28T04:46:34.148Z,0.00
2018-11-28T04:47:34.068Z,0.00
2018-11-28T04:48:33.994Z,0.00
2018-11-28T04:49:33.894Z,0.00
2018-11-28T04:50:33.822Z,0.00
2018-11-28T04:51:33.734Z,0.00
2018-11-28T04:52:33.658Z,0.00
2018-11-28T04:53:33.566Z,0.00
2018-11-28T04:54:33.498Z,0.00
2018-11-28T04:55:33.411Z,0.00
2018-11-28T04:56:33.332Z,0.00
2018-11-28T04:57:33.232Z,0.00
2018-11-28T04:58:33.163Z,0.00
2018-11-28T04:59:33.072Z,0.00
2018-11-28T05:00:32.990Z,0.00
2018-11-28T05:01:32.902Z,0.00
2018-11-28T05:02:32.823Z,0.00
2018-11-28T05:03:32.736Z,0.00
2018-11-28T05:04:32.655Z,0.00
2018-11-28T05:05:32.566Z,0.00
2018-11-28T05:06:32.495Z,0.00
2018-11-28T05:07:32.400Z,0.00
2018-11-28T05:08:32.323Z,0.00
2018-11-28T05:09:32.233Z,0.00
2018-11-28T05:10:32.161Z,0.00
2018-11-28T05:11:32.075Z,0.00
2018-11-28T05:12:31.992Z,0.00
2018-11-28T05:13:31.900Z,0.00
2018-11-28T05:14:31.827Z,0.00
2018-11-28T05:15:31.735Z,0.00
2018-11-28T05:16:31.661Z,0.00
2018-11-28T05:17:31.564Z,0.00
2018-11-28T05:18:31.494Z,0.00
2018-11-28T05:19:31.400Z,0.00
2018-11-28T05:20:31.324Z,0.00
2018-11-28T05:21:31.232Z,0.00
2018-11-28T05:22:31.163Z,0.00
2018-11-28T05:23:31.068Z,0.00
2018-11-28T05:24:30.990Z,0.00
2018-11-28T05:25:30.908Z,0.00
2018-11-28T05:26:30.824Z,0.00
2018-11-28T05:27:30.733Z,0.00
2018-11-28T05:28:30.661Z,0.00
2018-11-28T05:29:30.563Z,0.00
2018-11-28T05:30:30.491Z,0.00
2018-11-28T05:31:30.402Z,0.00
2018-11-28T05:32:30.327Z,0.00
2018-11-28T05:33:30.233Z,0.00
2018-11-28T05:34:30.154Z,0.00
2018-11-28T05:35:30.075Z,0.00
2018-11-28T05:36:29.988Z,0.00
2018-11-28T05:37:29.893Z,0.00
2018-11-28T05:38:29.823Z,0.00
2018-11-28T05:39:29.743Z,0.00
2018-11-28T05:40:30.652Z,0.00
2018-11-28T05:41:29.564Z,0.00
2018-11-28T05:42:29.490Z,0.00
2018-11-28T05:43:29.398Z,0.00
2018-11-28T05:44:29.323Z,0.00
2018-11-28T05:45:29.236Z,0.00
2018-11-28T05:46:29.157Z,0.00
2018-11-28T05:47:29.067Z,0.00
2018-11-28T05:48:29.087Z,0.00
2018-11-28T05:49:28.907Z,0.00
2018-11-28T05:50:28.895Z,0.00
2018-11-28T05:51:28.730Z,0.00
2018-11-28T05:52:28.648Z,0.00
2018-11-28T05:53:29.632Z,0.00
2018-11-28T05:54:28.482Z,0.00
2018-11-28T05:55:28.515Z,0.00
2018-11-28T05:56:28.317Z,0.00
2018-11-28T05:57:28.241Z,0.00
2018-11-28T05:58:28.146Z,0.00
2018-11-28T05:59:28.137Z,0.00
2018-11-28T06:00:27.977Z,0.00
2018-11-28T06:01:27.941Z,0.00
2018-11-28T06:02:27.814Z,0.00
2018-11-28T06:03:27.748Z,0.00
2018-11-28T06:04:27.647Z,0.00
2018-11-28T06:05:27.660Z,0.00
2018-11-28T06:06:27.480Z,0.00
2018-11-28T06:07:27.468Z,0.00
2018-11-28T06:08:27.313Z,0.00
2018-11-28T06:09:27.276Z,0.00
2018-11-28T06:10:27.149Z,0.00
2018-11-28T06:11:27.086Z,0.00
2018-11-28T06:12:26.978Z,0.00
2018-11-28T06:13:26.994Z,0.00
2018-11-28T06:14:26.813Z,0.00
2018-11-28T06:15:26.804Z,0.00
2018-11-28T06:16:26.647Z,0.00
2018-11-28T06:17:26.569Z,0.00
2018-11-28T06:18:26.475Z,0.00
2018-11-28T06:19:26.508Z,0.00
2018-11-28T06:20:26.314Z,0.00
2018-11-28T06:21:26.235Z,0.00
2018-11-28T06:22:26.147Z,0.00
2018-11-28T06:23:26.071Z,4.00
2018-11-28T06:24:25.979Z,0.00
2018-11-28T06:25:25.903Z,0.00
2018-11-28T06:26:25.817Z,4.00
2018-11-28T06:27:25.736Z,0.00
2018-11-28T06:28:25.649Z,0.00
2018-11-28T06:29:25.570Z,4.00
2018-11-28T06:30:25.480Z,4.00
2018-11-28T06:31:25.401Z,4.00
2018-11-28T06:32:25.313Z,4.00
2018-11-28T06:33:25.287Z,4.00
2018-11-28T06:34:25.144Z,4.00
2018-11-28T06:35:25.092Z,8.00
2018-11-28T06:36:24.975Z,8.00
2018-11-28T06:37:25.002Z,8.00
2018-11-28T06:38:24.808Z,12.00
2018-11-28T06:39:24.813Z,8.00
2018-11-28T06:40:24.645Z,12.00
2018-11-28T06:41:24.617Z,12.00
2018-11-28T06:42:24.475Z,16.00
2018-11-28T06:43:24.428Z,12.00
2018-11-28T06:44:24.307Z,16.00
2018-11-28T06:45:24.342Z,20.00
2018-11-28T06:46:24.143Z,16.00
2018-11-28T06:47:25.176Z,24.00
2018-11-28T06:48:23.975Z,24.00
2018-11-28T06:49:23.958Z,24.00
2018-11-28T06:50:23.815Z,28.00
2018-11-28T06:51:23.765Z,28.00
2018-11-28T06:52:23.640Z,28.00
2018-11-28T06:53:23.574Z,32.00
2018-11-28T06:54:23.475Z,36.00
2018-11-28T06:55:23.484Z,36.00
2018-11-28T06:56:23.312Z,40.00
2018-11-28T06:57:23.294Z,40.00
2018-11-28T06:58:23.142Z,44.00
2018-11-28T06:59:23.101Z,48.00
2018-11-28T07:00:22.968Z,48.00
2018-11-28T07:01:22.909Z,52.00
2018-11-28T07:02:22.805Z,52.00
2018-11-28T07:03:22.824Z,60.00
2018-11-28T07:04:22.637Z,60.00
2018-11-28T07:05:22.680Z,64.00
2018-11-28T07:06:22.470Z,68.00
2018-11-28T07:07:22.437Z,72.00
2018-11-28T07:08:22.309Z,76.00
2018-11-28T07:09:22.248Z,80.00
2018-11-28T07:10:22.137Z,84.00
2018-11-28T07:11:22.160Z,92.00
2018-11-28T07:12:21.970Z,96.00
2018-11-28T07:13:21.970Z,104.00
2018-11-28T07:14:21.809Z,112.00
2018-11-28T07:15:23.827Z,116.00
2018-11-28T07:16:21.634Z,120.00
2018-11-28T07:17:22.610Z,128.00
2018-11-28T07:18:21.462Z,136.00
2018-11-28T07:19:21.497Z,140.00
2018-11-28T07:20:21.300Z,152.00
2018-11-28T07:21:21.305Z,160.00
2018-11-28T07:22:21.132Z,172.00
2018-11-28T07:23:21.112Z,180.00
2018-11-28T07:24:20.972Z,188.00
2018-11-28T07:25:20.919Z,196.00
2018-11-28T07:26:20.794Z,208.00
2018-11-28T07:27:20.834Z,216.00
2018-11-28T07:28:20.632Z,224.00
2018-11-28T07:29:20.642Z,236.00
2018-11-28T07:30:20.467Z,248.00
2018-11-28T07:31:20.451Z,256.00
2018-11-28T07:32:20.295Z,268.00
2018-11-28T07:33:20.220Z,280.00
2018-11-28T07:34:20.163Z,288.00
2018-11-28T07:35:20.050Z,300.00
2018-11-28T07:36:20.069Z,312.00
2018-11-28T07:37:19.877Z,324.00
2018-11-28T07:38:19.879Z,336.00
2018-11-28T07:39:19.710Z,344.00
2018-11-28T07:40:19.695Z,352.00
2018-11-28T07:41:19.544Z,360.00
2018-11-28T07:42:19.496Z,368.00
2018-11-28T07:43:19.377Z,380.00
2018-11-28T07:44:19.403Z,380.00
2018-11-28T07:45:19.208Z,396.00
2018-11-28T07:46:19.216Z,392.00
2018-11-28T07:47:19.045Z,356.00
2018-11-28T07:48:19.022Z,324.00
2018-11-28T07:49:18.880Z,352.00
2018-11-28T07:50:18.830Z,424.00
2018-11-28T07:51:18.712Z,452.00
2018-11-28T07:52:18.741Z,456.00
2018-11-28T07:53:18.545Z,380.00
2018-11-28T07:54:18.550Z,468.00
2018-11-28T07:55:18.391Z,452.00
2018-11-28T07:56:18.355Z,476.00
2018-11-28T07:57:18.222Z,504.00
2018-11-28T07:58:18.169Z,528.00
2018-11-28T07:59:18.042Z,516.00
2018-11-28T08:00:18.073Z,528.00
2018-11-28T08:01:17.880Z,572.00
2018-11-28T08:02:17.884Z,580.00
2018-11-28T08:03:17.719Z,568.00
2018-11-28T08:04:17.828Z,600.00
2018-11-28T08:05:17.550Z,608.00
2018-11-28T08:06:17.498Z,536.00
2018-11-28T08:07:17.381Z,608.00
2018-11-28T08:08:17.412Z,680.00
2018-11-28T08:09:17.215Z,704.00
2018-11-28T08:10:17.221Z,728.00
2018-11-28T08:11:17.084Z,752.00
2018-11-28T08:12:17.035Z,780.00
2018-11-28T08:13:16.881Z,800.00
2018-11-28T08:14:16.837Z,816.00
2018-11-28T08:15:16.718Z,832.00
2018-11-28T08:16:16.747Z,856.00
2018-11-28T08:17:16.550Z,856.00
2018-11-28T08:18:16.561Z,872.00
2018-11-28T08:19:16.384Z,892.00
2018-11-28T08:20:16.365Z,812.00
2018-11-28T08:21:16.224Z,784.00
2018-11-28T08:22:16.175Z,852.00
2018-11-28T08:23:16.057Z,948.00
2018-11-28T08:24:16.087Z,868.00
2018-11-28T08:25:15.888Z,780.00
2018-11-28T08:26:15.893Z,856.00
2018-11-28T08:27:16.023Z,988.00
2018-11-28T08:28:15.697Z,1012.00
2018-11-28T08:29:15.631Z,1024.00
2018-11-28T08:30:15.511Z,1000.00
2018-11-28T08:31:15.394Z,1020.00
2018-11-28T08:32:15.421Z,1048.00
2018-11-28T08:33:15.225Z,1020.00
2018-11-28T08:34:15.230Z,968.00
2018-11-28T08:35:15.067Z,940.00
2018-11-28T08:36:15.039Z,964.00
2018-11-28T08:37:14.899Z,984.00
2018-11-28T08:38:14.848Z,992.00
2018-11-28T08:39:14.735Z,960.00
2018-11-28T08:40:14.757Z,1020.00
2018-11-28T08:41:14.573Z,1036.00
2018-11-28T08:42:14.566Z,1060.00
2018-11-28T08:43:14.406Z,1036.00
2018-11-28T08:44:14.406Z,1124.00
2018-11-28T08:45:14.241Z,1212.00
2018-11-28T08:46:14.185Z,1208.00
2018-11-28T08:47:14.105Z,864.00
2018-11-28T08:48:14.094Z,940.00
2018-11-28T08:49:13.910Z,828.00
2018-11-28T08:50:13.901Z,872.00
2018-11-28T08:51:13.748Z,960.00
2018-11-28T08:52:13.711Z,880.00
2018-11-28T08:53:13.582Z,1064.00
2018-11-28T08:54:13.539Z,1156.00
2018-11-28T08:55:13.419Z,1308.00
2018-11-28T08:56:13.432Z,1088.00
2018-11-28T08:57:13.251Z,1028.00
2018-11-28T08:58:13.240Z,1328.00
2018-11-28T08:59:13.087Z,1324.00
2018-11-28T09:00:13.045Z,1188.00
2018-11-28T09:01:12.923Z,1148.00
2018-11-28T09:02:12.961Z,996.00
2018-11-28T09:03:12.760Z,892.00
2018-11-28T09:04:12.769Z,916.00
2018-11-28T09:05:12.602Z,1052.00
2018-11-28T09:06:12.573Z,1040.00
2018-11-28T09:07:12.435Z,1020.00
2018-11-28T09:08:12.381Z,1260.00
2018-11-28T09:09:12.274Z,1140.00
2018-11-28T09:10:12.292Z,1088.00
2018-11-28T09:11:12.108Z,1064.00
2018-11-28T09:12:12.101Z,772.00
2018-11-28T09:13:11.946Z,1032.00
2018-11-28T09:14:11.910Z,992.00
2018-11-28T09:15:11.779Z,852.00
2018-11-28T09:16:11.718Z,1036.00
2018-11-28T09:17:15.157Z,656.00
2018-11-28T09:18:11.630Z,664.00
2018-11-28T09:19:11.449Z,1036.00
2018-11-28T09:20:11.432Z,856.00
2018-11-28T09:21:11.281Z,780.00
2018-11-28T09:22:11.246Z,1156.00
2018-11-28T09:23:11.120Z,1216.00
2018-11-28T09:24:11.157Z,1028.00
2018-11-28T09:25:10.956Z,1312.00
2018-11-28T09:26:10.968Z,1388.00
2018-11-28T09:27:10.791Z,1336.00
2018-11-28T09:28:10.774Z,1384.00
2018-11-28T09:29:10.637Z,1324.00
2018-11-28T09:30:10.640Z,1304.00
2018-11-28T09:31:10.468Z,1452.00
2018-11-28T09:32:10.490Z,1564.00
2018-11-28T09:33:10.298Z,1292.00
2018-11-28T09:34:10.306Z,1268.00
2018-11-28T09:35:10.132Z,1196.00
2018-11-28T09:36:12.158Z,936.00
2018-11-28T09:37:09.972Z,1272.00
2018-11-28T09:38:09.918Z,1544.00
2018-11-28T09:39:09.806Z,1732.00
2018-11-28T09:40:09.830Z,1712.00
2018-11-28T09:41:09.644Z,1496.00
2018-11-28T09:42:09.636Z,1640.00
2018-11-28T09:43:09.481Z,1300.00
2018-11-28T09:44:09.448Z,1452.00
2018-11-28T09:45:09.313Z,1248.00
2018-11-28T09:46:09.257Z,1064.00
2018-11-28T09:47:09.153Z,972.00
2018-11-28T09:48:09.238Z,764.00
2018-11-28T09:49:08.994Z,704.00
2018-11-28T09:50:08.979Z,668.00
2018-11-28T09:51:08.825Z,660.00
2018-11-28T09:52:08.753Z,704.00
2018-11-28T09:53:08.693Z,932.00
2018-11-28T09:54:08.578Z,764.00
2018-11-28T09:55:08.604Z,936.00
2018-11-28T09:56:08.416Z,816.00
2018-11-28T09:57:08.411Z,1128.00
2018-11-28T09:58:08.253Z,1028.00
2018-11-28T09:59:08.232Z,1040.00
2018-11-28T10:00:08.088Z,816.00
2018-11-28T10:01:08.127Z,740.00
2018-11-28T10:02:07.978Z,1184.00
2018-11-28T10:03:07.927Z,1532.00
2018-11-28T10:04:07.759Z,1132.00
2018-11-28T10:05:07.748Z,1428.00
2018-11-28T10:06:07.602Z,1212.00
2018-11-28T10:07:07.549Z,1424.00
2018-11-28T10:08:07.434Z,1436.00
2018-11-28T10:09:07.460Z,1312.00
2018-11-28T10:10:07.276Z,1176.00
2018-11-28T10:11:07.276Z,992.00
2018-11-28T10:12:07.108Z,828.00
2018-11-28T10:13:07.076Z,1148.00
2018-11-28T10:14:06.947Z,1156.00
2018-11-28T10:15:06.888Z,1292.00
2018-11-28T10:16:06.789Z,1232.00
2018-11-28T10:17:06.801Z,1376.00
2018-11-28T10:18:06.619Z,1556.00
2018-11-28T10:19:06.605Z,1628.00
2018-11-28T10:20:06.456Z,1576.00
2018-11-28T10:21:06.424Z,1532.00
2018-11-28T10:22:06.289Z,1200.00
2018-11-28T10:23:06.325Z,1776.00
2018-11-28T10:24:06.158Z,1448.00
2018-11-28T10:25:06.134Z,1632.00
2018-11-28T10:26:05.961Z,1460.00
2018-11-28T10:27:05.940Z,1392.00
2018-11-28T10:28:05.802Z,1424.00
2018-11-28T10:29:05.748Z,1716.00
2018-11-28T10:30:05.689Z,1468.00
2018-11-28T10:31:05.659Z,1444.00
2018-11-28T10:32:05.474Z,1428.00
2018-11-28T10:33:05.466Z,1008.00
2018-11-28T10:34:05.313Z,1020.00
2018-11-28T10:35:05.275Z,836.00
2018-11-28T10:36:05.149Z,1248.00
2018-11-28T10:37:05.087Z,1212.00
2018-11-28T10:38:04.994Z,1396.00
2018-11-28T10:39:04.995Z,1004.00
2018-11-28T10:40:04.823Z,1300.00
2018-11-28T10:41:04.804Z,1024.00
2018-11-28T10:42:04.667Z,1184.00
2018-11-28T10:43:04.617Z,1324.00
2018-11-28T10:44:04.516Z,1756.00
2018-11-28T10:45:04.523Z,924.00
2018-11-28T10:46:04.334Z,752.00
2018-11-28T10:47:04.335Z,768.00
2018-11-28T10:48:04.168Z,1364.00
2018-11-28T10:49:04.142Z,1116.00
2018-11-28T10:50:04.009Z,756.00
2018-11-28T10:51:03.950Z,1196.00
2018-11-28T10:52:03.847Z,1088.00
2018-11-28T10:53:03.864Z,1328.00
2018-11-28T10:54:03.685Z,944.00
2018-11-28T10:55:04.129Z,1068.00
2018-11-28T10:56:03.523Z,1208.00
2018-11-28T10:57:03.479Z,1032.00
2018-11-28T10:58:03.355Z,872.00
2018-11-28T10:59:03.395Z,824.00
2018-11-28T11:00:03.203Z,696.00
2018-11-28T11:01:03.196Z,724.00
2018-11-28T11:02:03.032Z,936.00
2018-11-28T11:03:03.006Z,712.00
2018-11-28T11:04:02.868Z,732.00
2018-11-28T11:05:02.814Z,724.00
2018-11-28T11:06:02.705Z,1136.00
2018-11-28T11:07:02.723Z,1352.00
2018-11-28T11:08:02.545Z,1420.00
2018-11-28T11:09:02.530Z,1388.00
2018-11-28T11:10:02.376Z,1092.00
2018-11-28T11:11:02.346Z,860.00
2018-11-28T11:12:02.217Z,984.00
2018-11-28T11:13:02.262Z,960.00
2018-11-28T11:14:02.056Z,1076.00
2018-11-28T11:15:02.066Z,1124.00
2018-11-28T11:16:01.891Z,1248.00
2018-11-28T11:17:01.868Z,1168.00
2018-11-28T11:18:02.216Z,1208.00
2018-11-28T11:19:01.676Z,1208.00
2018-11-28T11:20:01.565Z,1244.00
2018-11-28T11:21:01.590Z,1276.00
2018-11-28T11:22:01.422Z,1140.00
2018-11-28T11:23:01.396Z,1400.00
2018-11-28T11:24:01.237Z,1184.00
2018-11-28T11:25:01.204Z,1436.00
2018-11-28T11:26:01.076Z,1584.00
2018-11-28T11:27:01.012Z,1436.00
2018-11-28T11:28:00.913Z,1460.00
2018-11-28T11:29:00.927Z,1336.00
2018-11-28T11:30:00.762Z,1348.00
2018-11-28T11:31:00.732Z,808.00
2018-11-28T11:32:00.591Z,692.00
2018-11-28T11:33:00.543Z,1020.00
2018-11-28T11:34:00.425Z,900.00
2018-11-28T11:35:00.511Z,1240.00
2018-11-28T11:36:00.262Z,1072.00
2018-11-28T11:37:00.257Z,960.00
2018-11-28T11:38:00.106Z,776.00
2018-11-28T11:39:02.113Z,768.00
2018-11-28T11:39:59.938Z,736.00
2018-11-28T11:40:59.875Z,692.00
2018-11-28T11:41:59.776Z,696.00
2018-11-28T11:42:59.787Z,668.00
2018-11-28T11:43:59.611Z,532.00
2018-11-28T11:44:59.595Z,508.00
2018-11-28T11:45:59.444Z,492.00
2018-11-28T11:46:59.401Z,648.00
2018-11-28T11:47:59.286Z,636.00
2018-11-28T11:48:59.316Z,604.00
2018-11-28T11:49:59.120Z,592.00
2018-11-28T11:50:59.145Z,660.00
2018-11-28T11:51:58.964Z,604.00
2018-11-28T11:52:58.927Z,564.00
2018-11-28T11:53:58.805Z,544.00
2018-11-28T11:54:59.760Z,588.00
2018-11-28T11:55:58.629Z,736.00
2018-11-28T11:56:58.893Z,844.00
2018-11-28T11:57:58.467Z,644.00
2018-11-28T11:58:58.460Z,620.00
2018-11-28T11:59:58.302Z,640.00
2018-11-28T12:00:58.238Z,680.00
2018-11-28T12:01:58.140Z,552.00
2018-11-28T12:02:58.083Z,552.00
2018-11-28T12:03:58.014Z,604.00
2018-11-28T12:04:57.985Z,572.00
2018-11-28T12:05:57.814Z,632.00
2018-11-28T12:06:57.797Z,692.00
2018-11-28T12:07:57.655Z,948.00
2018-11-28T12:08:57.611Z,1144.00
2018-11-28T12:09:57.491Z,1260.00
2018-11-28T12:10:57.519Z,676.00
2018-11-28T12:11:57.323Z,560.00
2018-11-28T12:12:57.322Z,736.00
2018-11-28T12:13:57.210Z,1124.00
2018-11-28T12:14:57.132Z,1000.00
2018-11-28T12:15:57.035Z,1024.00
2018-11-28T12:16:56.941Z,816.00
2018-11-28T12:17:56.832Z,1012.00
2018-11-28T12:18:56.854Z,1272.00
2018-11-28T12:19:56.670Z,1172.00
2018-11-28T12:20:56.661Z,1148.00
2018-11-28T12:21:56.509Z,908.00
2018-11-28T12:22:56.468Z,816.00
2018-11-28T12:23:56.344Z,1012.00
2018-11-28T12:24:56.379Z,1004.00
2018-11-28T12:25:56.180Z,988.00
2018-11-28T12:26:56.186Z,1152.00
2018-11-28T12:27:56.020Z,1176.00
2018-11-28T12:28:55.995Z,1016.00
2018-11-28T12:29:55.859Z,1232.00
2018-11-28T12:30:55.805Z,1072.00
2018-11-28T12:31:55.717Z,824.00
2018-11-28T12:32:55.726Z,668.00
2018-11-28T12:33:55.526Z,668.00
2018-11-28T12:34:55.521Z,628.00
2018-11-28T12:35:55.362Z,752.00
2018-11-28T12:36:55.334Z,752.00
2018-11-28T12:37:55.202Z,612.00
2018-11-28T12:38:55.138Z,948.00
2018-11-28T12:39:55.039Z,868.00
2018-11-28T12:40:55.057Z,948.00
2018-11-28T12:41:54.875Z,772.00
2018-11-28T12:42:54.859Z,744.00
2018-11-28T12:43:54.705Z,516.00
2018-11-28T12:44:54.674Z,492.00
2018-11-28T12:45:54.544Z,604.00
2018-11-28T12:46:54.579Z,684.00
2018-11-28T12:47:54.385Z,664.00
2018-11-28T12:48:54.390Z,844.00